Time;durP1;ratioP1;P1;durP2;ratioP2;P2;SDS_P1;SDS_P2;PMS_P1;PMS_P2;Temp;Humidity;BMP_temperature;BMP_pressure;BME280_temperature;BME280_humidity;BME280_pressure;Samples;Min_cycle;Max_cycle;Signal;HPM_P1;HPM_P2
2022/05/26 00:00:07;;;;;;;7.82;4.47;;;;;;;18.82;51.79;98892.13;5132514;27;20062;-91
2022/05/26 00:02:34;;;;;;;10.53;4.73;;;;;;;18.87;52.35;98871.19;5132213;27;20131;-92
2022/05/26 00:05:00;;;;;;;10.63;4.90;;;;;;;18.83;51.35;98857.00;5132070;28;20086;-92
2022/05/26 00:07:26;;;;;;;9.90;5.03;;;;;;;18.95;51.94;98879.66;5132318;27;20047;-91
2022/05/26 00:09:52;;;;;;;10.27;5.15;;;;;;;18.87;52.47;98876.56;5132379;27;20043;-93
2022/05/26 00:12:19;;;;;;;10.52;5.10;;;;;;;18.79;52.48;98863.53;5131867;27;20050;-93
2022/05/26 00:14:45;;;;;;;9.95;4.72;;;;;;;18.77;52.96;98862.72;5132692;27;20540;-92
2022/05/26 00:17:11;;;;;;;8.68;4.45;;;;;;;18.84;51.42;98866.81;5132365;27;20039;-93
2022/05/26 00:19:38;;;;;;;10.00;5.20;;;;;;;18.83;51.07;98869.63;5131950;27;20054;-93
2022/05/26 00:22:04;;;;;;;9.38;4.97;;;;;;;18.85;52.64;98865.00;5132186;27;20080;-93
2022/05/26 00:24:30;;;;;;;12.23;5.03;;;;;;;18.81;52.77;98871.53;5131789;27;20027;-93
2022/05/26 00:26:56;;;;;;;10.95;4.82;;;;;;;18.76;52.71;98878.97;5132031;28;20066;-92
2022/05/26 00:29:21;;;;;;;9.57;5.00;;;;;;;18.60;52.72;98874.47;5132064;27;20039;-94
2022/05/26 00:31:47;;;;;;;11.38;5.25;;;;;;;18.42;53.40;98857.56;5132052;27;20063;-94
2022/05/26 00:34:13;;;;;;;8.43;5.18;;;;;;;18.43;53.18;98861.13;5131805;27;20047;-93
2022/05/26 00:36:42;;;;;;;13.30;5.57;;;;;;;18.35;53.10;98864.28;5131837;27;20083;-94
2022/05/26 00:39:11;;;;;;;10.55;5.32;;;;;;;18.38;53.23;98871.31;5131694;27;20058;-93
2022/05/26 00:41:43;;;;;;;;;;;;;;;18.33;53.72;98881.47;5131942;27;20048;-93
2022/05/26 00:44:10;;;;;;;9.00;5.15;;;;;;;18.29;53.84;98871.84;5131271;27;20012;-93
2022/05/26 00:46:40;;;;;;;9.18;4.50;;;;;;;18.13;54.24;98872.72;5131584;27;20049;-93
2022/05/26 00:49:13;;;;;;;11.85;4.90;;;;;;;18.02;55.35;98876.00;5130993;28;20031;-93
2022/05/26 00:51:40;;;;;;;9.20;4.85;;;;;;;17.83;54.96;98870.78;5131609;27;20045;-93
2022/05/26 00:54:12;;;;;;;9.20;5.07;;;;;;;17.58;56.41;98846.13;5131954;27;20027;-94
2022/05/26 00:56:43;;;;;;;10.25;5.10;;;;;;;17.61;55.75;98859.44;5118105;27;20562;-93
2022/05/26 00:59:14;;;;;;;9.73;4.75;;;;;;;17.57;54.65;98860.53;5115813;28;20040;-94
2022/05/26 01:01:40;;;;;;;12.82;4.90;;;;;;;17.68;54.43;98860.81;5117714;28;20046;-94
2022/05/26 01:04:10;;;;;;;9.57;4.90;;;;;;;17.59;53.89;98848.75;5116759;28;20044;-92
2022/05/26 01:06:45;;;;;;;10.73;5.10;;;;;;;17.63;54.13;98844.06;5117567;28;20047;-94
2022/05/26 01:09:11;;;;;;;9.57;4.90;;;;;;;17.68;53.86;98858.13;5117423;27;20324;-93
2022/05/26 01:11:39;;;;;;;9.00;4.80;;;;;;;17.68;54.07;98850.06;5117381;28;20044;-95
2022/05/26 01:14:10;;;;;;;14.60;5.28;;;;;;;17.66;54.27;98846.59;5117708;28;20043;-93
2022/05/26 01:16:43;;;;;;;8.38;5.22;;;;;;;17.77;54.38;98848.69;5117559;28;20393;-94
2022/05/26 01:19:32;;;;;;;10.07;5.15;;;;;;;17.74;54.54;98854.22;5117041;28;20493;-93
2022/05/26 01:22:08;;;;;;;8.20;4.95;;;;;;;17.73;53.41;98853.34;5114752;28;20035;-94
2022/05/26 01:24:58;;;;;;;9.10;5.40;;;;;;;18.02;53.52;98850.91;5117290;28;20476;-92
2022/05/26 01:27:32;;;;;;;11.43;5.30;;;;;;;18.08;52.50;98839.78;5117040;28;20044;-94
2022/05/26 01:30:19;;;;;;;13.27;5.00;;;;;;;18.27;51.39;98836.94;5116772;28;20040;-93
2022/05/26 01:33:02;;;;;;;15.23;5.43;;;;;;;18.52;50.22;98832.81;5115959;28;20132;-92
2022/05/26 01:35:32;;;;;;;8.63;5.00;;;;;;;18.65;50.29;98823.03;5115470;28;20040;-93
2022/05/26 01:38:13;;;;;;;10.15;5.15;;;;;;;18.68;50.16;98825.56;5116038;28;20035;-91
2022/05/26 01:40:50;;;;;;;10.88;5.53;;;;;;;18.61;50.19;98826.91;5116056;28;20489;-92
2022/05/26 01:43:26;;;;;;;9.18;4.72;;;;;;;18.67;50.67;98831.88;5115436;28;20070;-92
2022/05/26 01:46:13;;;;;;;14.63;5.43;;;;;;;18.51;51.21;98814.91;5115491;28;20040;-93
2022/05/26 01:48:47;;;;;;;8.83;4.63;;;;;;;18.41;51.32;98803.81;5109070;28;20032;-92
2022/05/26 01:51:16;;;;;;;10.45;5.28;;;;;;;18.29;50.92;98791.09;5115148;28;20040;-93
2022/05/26 01:53:51;;;;;;;12.98;5.32;;;;;;;18.40;51.44;98799.41;5116301;28;20032;-92
2022/05/26 01:56:23;;;;;;;8.68;5.05;;;;;;;18.39;51.68;98794.94;5116172;28;20039;-92
2022/05/26 01:58:54;;;;;;;11.68;6.00;;;;;;;18.39;52.90;98798.53;5115988;28;20036;-93
2022/05/26 02:01:24;;;;;;;8.57;5.35;;;;;;;18.36;53.88;98795.16;5116392;28;20127;-95
2022/05/26 02:03:53;;;;;;;10.82;5.65;;;;;;;18.47;50.65;98780.06;5116163;28;20032;-94
2022/05/26 02:06:23;;;;;;;9.50;5.88;;;;;;;18.65;49.55;98764.66;5115567;28;20389;-94
2022/05/26 02:08:53;;;;;;;8.45;5.18;;;;;;;18.94;48.50;98770.13;5115287;28;20043;-92
2022/05/26 02:11:21;;;;;;;8.90;5.40;;;;;;;19.07;48.11;98756.78;5115596;28;20035;-92
2022/05/26 02:13:52;;;;;;;10.45;5.32;;;;;;;19.22;47.43;98760.34;5115263;28;20036;-92
2022/05/26 02:16:22;;;;;;;11.45;5.50;;;;;;;19.37;46.80;98780.94;5115390;28;20039;-91
2022/05/26 02:18:59;;;;;;;9.02;5.03;;;;;;;19.11;50.80;98779.03;5115405;27;20073;-91
2022/05/26 02:21:33;;;;;;;10.57;5.57;;;;;;;18.87;51.92;98776.88;5114663;28;20602;-91
2022/05/26 02:24:05;;;;;;;11.10;5.40;;;;;;;18.67;53.07;98792.38;5114306;28;20035;-91
2022/05/26 02:26:31;;;;;;;10.93;5.88;;;;;;;18.37;54.26;98789.69;5114443;28;20054;-92
2022/05/26 02:31:58;;;;;;;10.57;5.45;;;;;;;18.04;55.42;98808.63;5102881;27;20376;-92
2022/05/26 02:34:25;;;;;;;10.68;5.72;;;;;;;17.82;56.20;98799.06;5069833;28;20061;-93
2022/05/26 02:36:55;;;;;;;12.07;6.00;;;;;;;17.73;56.98;98810.31;5070978;28;20075;-91
2022/05/26 02:39:21;;;;;;;10.65;5.95;;;;;;;17.62;57.81;98810.06;5069780;28;20064;-92
2022/05/26 02:41:47;;;;;;;11.63;5.68;;;;;;;17.51;58.05;98801.72;5071014;28;20079;-92
2022/05/26 02:44:14;;;;;;;9.18;5.53;;;;;;;17.37;58.72;98792.59;5070261;28;20048;-92
2022/05/26 02:47:08;;;;;;;8.65;5.20;;;;;;;17.35;59.28;98794.50;5070602;28;20071;-92
2022/05/26 02:49:49;;;;;;;13.32;5.65;;;;;;;17.28;59.73;98801.13;5065331;28;20061;-92
2022/05/26 02:52:25;;;;;;;11.10;5.30;;;;;;;17.16;60.37;98800.00;5068911;28;20107;-91
2022/05/26 02:55:11;;;;;;;9.07;5.80;;;;;;;16.99;61.24;98789.28;5070037;28;20458;-92
2022/05/26 02:57:50;;;;;;;13.57;5.78;;;;;;;16.95;60.84;98788.56;5069973;28;20073;-94
2022/05/26 03:00:19;;;;;;;11.07;5.82;;;;;;;16.96;60.27;98798.38;5069327;28;20041;-92
2022/05/26 03:02:56;;;;;;;12.98;5.53;;;;;;;16.86;58.21;98796.25;5069638;28;20040;-91
2022/05/26 03:05:26;;;;;;;11.80;5.28;;;;;;;16.88;58.65;98797.91;5069308;28;20033;-91
2022/05/26 03:07:58;;;;;;;11.32;5.68;;;;;;;16.86;58.42;98783.69;5070151;28;20029;-92
2022/05/26 03:10:26;;;;;;;9.10;5.38;;;;;;;17.01;58.13;98801.66;5064558;28;20120;-91
2022/05/26 03:12:54;;;;;;;10.68;5.40;;;;;;;17.01;58.47;98798.97;5070248;28;20045;-93
2022/05/26 03:15:21;;;;;;;13.52;5.20;;;;;;;16.98;58.52;98780.34;5070242;28;20065;-92
2022/05/26 03:17:48;;;;;;;11.30;5.85;;;;;;;17.08;59.35;98790.59;5069939;28;20098;-93
2022/05/26 03:20:14;;;;;;;11.95;5.60;;;;;;;16.95;59.57;98793.94;5067343;28;20123;-93
2022/05/26 03:22:40;;;;;;;9.98;5.60;;;;;;;16.92;59.79;98807.53;5069946;28;20048;-92
2022/05/26 03:25:07;;;;;;;10.15;5.43;;;;;;;16.87;59.03;98793.44;5069739;28;20120;-93
2022/05/26 03:27:33;;;;;;;10.93;5.50;;;;;;;16.90;59.32;98793.31;5069797;28;20128;-92
2022/05/26 03:29:59;;;;;;;14.02;5.10;;;;;;;16.94;58.15;98796.72;5069446;28;20569;-90
2022/05/26 03:32:25;;;;;;;9.68;4.90;;;;;;;17.04;56.35;98803.31;5069534;28;20555;-91
2022/05/26 03:43:40;;;;;;;9.65;5.13;;;;;;;17.61;54.30;98779.63;5091369;27;20374;-93
2022/05/26 03:46:06;;;;;;;9.68;5.88;;;;;;;17.60;58.95;98787.75;5090464;28;20040;-92
2022/05/26 03:48:33;;;;;;;12.73;6.07;;;;;;;17.59;59.37;98794.09;5089958;28;20039;-92
2022/05/26 03:56:06;;;;;;;10.70;6.40;;;;;;;17.20;60.97;98798.03;5132243;28;20047;-93
2022/05/26 03:58:35;;;;;;;9.95;5.28;;;;;;;17.25;58.87;98807.56;5133768;28;20039;-92
2022/05/26 04:01:03;;;;;;;11.70;5.65;;;;;;;17.28;58.86;98797.59;5133261;28;20556;-92
2022/05/26 04:03:29;;;;;;;8.93;5.40;;;;;;;17.32;58.92;98789.28;5131086;28;20043;-92
2022/05/26 04:05:55;;;;;;;11.73;5.32;;;;;;;17.48;58.75;98796.50;5132758;28;20036;-91
2022/05/26 04:08:21;;;;;;;9.10;5.30;;;;;;;17.49;60.36;98790.19;5132642;28;20043;-93
2022/05/26 04:10:47;;;;;;;10.50;6.72;;;;;;;17.51;60.51;98789.13;5132963;28;20039;-93
2022/05/26 04:13:14;;;;;;;13.40;6.40;;;;;;;17.31;61.48;98774.09;5133562;28;20034;-93
2022/05/26 04:15:40;;;;;;;12.18;6.70;;;;;;;17.36;61.40;98795.34;5132172;28;20034;-93
2022/05/26 04:18:07;;;;;;;11.82;6.60;;;;;;;17.13;62.35;98797.47;5133827;28;20051;-93
2022/05/26 04:20:33;;;;;;;13.50;6.50;;;;;;;17.12;62.65;98803.78;5132175;28;20047;-92
2022/05/26 04:22:59;;;;;;;14.98;6.68;;;;;;;17.16;62.20;98804.50;5133069;28;20039;-93
2022/05/26 04:25:26;;;;;;;14.45;6.80;;;;;;;17.03;62.43;98807.84;5133651;28;20114;-93
2022/05/26 04:27:53;;;;;;;13.80;7.60;;;;;;;17.07;62.51;98824.66;5133031;28;20046;-93
2022/05/26 04:30:20;;;;;;;13.23;7.05;;;;;;;17.18;62.31;98853.66;5132971;28;20050;-93
2022/05/26 04:32:46;;;;;;;14.55;7.18;;;;;;;17.24;62.68;98862.25;5134366;27;20507;-91
2022/05/26 04:35:13;;;;;;;15.00;7.88;;;;;;;17.21;62.71;98856.16;5133717;28;20051;-91
2022/05/26 04:37:40;;;;;;;12.90;7.15;;;;;;;17.25;62.73;98861.28;5132887;28;20035;-93
2022/05/26 04:40:07;;;;;;;12.38;7.43;;;;;;;17.15;63.16;98860.03;5132934;28;20088;-92
2022/05/26 04:42:33;;;;;;;15.02;7.10;;;;;;;17.07;63.11;98831.84;5132512;28;20063;-94
2022/05/26 04:44:59;;;;;;;12.57;6.80;;;;;;;16.92;63.76;98818.28;5132947;28;20447;-91
2022/05/26 04:47:25;;;;;;;12.13;6.93;;;;;;;17.15;63.38;98854.66;5133446;28;20074;-91
2022/05/26 04:49:51;;;;;;;14.68;7.57;;;;;;;17.23;63.50;98854.28;5132672;28;20047;-92
2022/05/26 04:52:22;;;;;;;11.48;6.35;;;;;;;17.18;62.66;98850.97;5132903;28;20027;-90
2022/05/26 04:54:48;;;;;;;17.70;7.78;;;;;;;17.35;62.21;98864.38;5107090;28;20043;-91
2022/05/26 04:57:18;;;;;;;17.73;7.10;;;;;;;17.40;62.62;98859.63;5118468;28;20054;-92
2022/05/26 04:59:44;;;;;;;13.82;7.00;;;;;;;17.56;62.72;98873.09;5117916;28;20048;-92
2022/05/26 05:02:11;;;;;;;15.68;7.55;;;;;;;17.70;62.38;98884.94;5117810;28;20032;-92
2022/05/26 05:04:39;;;;;;;14.10;6.72;;;;;;;17.75;61.92;98893.63;5118194;28;20400;-90
2022/05/26 05:07:05;;;;;;;16.40;6.75;;;;;;;17.85;61.80;98906.53;5115850;28;20035;-92
2022/05/26 05:09:32;;;;;;;17.08;7.43;;;;;;;17.96;62.06;98914.00;5116402;28;20039;-91
2022/05/26 05:11:58;;;;;;;13.48;7.43;;;;;;;17.95;60.81;98904.19;5118587;28;20603;-92
2022/05/26 05:14:24;;;;;;;14.18;8.48;;;;;;;18.33;59.80;98913.78;5115940;28;20114;-93
2022/05/26 05:16:50;;;;;;;18.77;7.43;;;;;;;18.52;58.87;98905.50;5119365;28;20039;-92
2022/05/26 05:19:17;;;;;;;14.43;7.38;;;;;;;18.61;58.52;98913.94;5118243;28;20048;-92
2022/05/26 05:21:47;;;;;;;16.17;6.70;;;;;;;18.71;58.06;98918.78;5119688;28;20373;-93
2022/05/26 05:24:17;;;;;;;15.23;7.22;;;;;;;18.94;57.07;98929.13;5118226;28;20073;-93
2022/05/26 05:26:50;;;;;;;12.93;7.47;;;;;;;19.01;56.84;98940.41;5118141;28;20044;-93
2022/05/26 05:29:19;;;;;;;16.98;7.47;;;;;;;18.91;57.78;98933.81;5117851;28;20092;-93
2022/05/26 05:31:50;;;;;;;14.00;7.28;;;;;;;18.90;57.58;98929.41;5117268;28;20047;-92
2022/05/26 05:34:19;;;;;;;15.13;7.72;;;;;;;19.01;57.07;98935.03;5117754;28;20235;-93
2022/05/26 05:36:45;;;;;;;14.25;7.78;;;;;;;18.88;57.58;98924.09;5117482;28;20035;-94
2022/05/26 05:39:11;;;;;;;12.82;7.15;;;;;;;18.94;57.79;98939.03;5111134;28;20479;-93
2022/05/26 05:41:37;;;;;;;17.20;7.03;;;;;;;18.94;58.88;98934.53;5117671;28;20061;-94
2022/05/26 05:44:05;;;;;;;13.32;6.93;;;;;;;19.07;59.23;98943.63;5118667;28;20486;-93
2022/05/26 05:46:53;;;;;;;14.03;6.80;;;;;;;19.22;58.44;98943.69;5114691;28;20111;-93
2022/05/26 05:49:19;;;;;;;18.25;7.15;;;;;;;19.31;57.50;98931.47;5084228;28;20184;-93
2022/05/26 05:51:44;;;;;;;16.48;7.30;;;;;;;19.33;57.61;98941.19;5116286;28;20044;-93
2022/05/26 05:54:10;;;;;;;17.63;7.47;;;;;;;19.41;57.27;98940.72;5117554;28;20129;-93
2022/05/26 05:56:36;;;;;;;21.77;7.90;;;;;;;18.84;59.93;98931.47;5118419;28;20138;-93
2022/05/26 05:59:02;;;;;;;14.10;7.55;;;;;;;18.82;60.58;98946.91;5117142;28;20040;-93
2022/05/26 06:01:29;;;;;;;18.05;8.27;;;;;;;18.46;61.96;98933.66;5118419;28;20093;-94
2022/05/26 06:03:55;;;;;;;17.85;7.40;;;;;;;18.57;62.10;98955.47;5105619;28;20074;-91
2022/05/26 06:06:21;;;;;;;15.18;7.63;;;;;;;18.55;61.64;98964.59;5117051;28;20040;-94
2022/05/26 06:08:46;;;;;;;17.00;7.18;;;;;;;18.16;62.22;98939.81;5116958;28;20105;-92
2022/05/26 06:11:12;;;;;;;16.55;7.32;;;;;;;18.13;62.83;98949.88;5116778;28;20061;-92
2022/05/26 06:13:38;;;;;;;18.38;7.30;;;;;;;18.08;63.73;98950.13;5116764;28;20441;-93
2022/05/26 06:16:05;;;;;;;19.55;8.23;;;;;;;18.10;63.78;98963.50;5117716;28;20511;-92
2022/05/26 06:18:32;;;;;;;15.27;7.68;;;;;;;17.91;64.22;98944.78;5116569;28;20047;-92
2022/05/26 06:21:04;;;;;;;16.08;7.10;;;;;;;17.95;64.78;98966.06;5116274;28;20051;-94
2022/05/26 06:23:30;;;;;;;13.23;7.80;;;;;;;17.84;64.32;98957.72;5116203;28;20055;-93
2022/05/26 06:25:56;;;;;;;18.65;7.72;;;;;;;17.88;65.35;98970.06;5118743;28;20061;-94
2022/05/26 06:31:23;;;;;;;14.75;6.80;;;;;;;18.29;63.93;99003.75;5092546;27;20731;-93
2022/05/26 06:39:50;;;;;;;15.65;7.88;;;;;;;18.69;62.16;99015.84;5115566;27;20733;-94
2022/05/26 06:42:17;;;;;;;30.70;9.13;;;;;;;18.68;62.54;99004.22;5095232;28;20056;-93
2022/05/26 06:44:44;;;;;;;20.95;8.25;;;;;;;18.78;62.80;99009.09;5097838;28;20116;-94
2022/05/26 06:47:13;;;;;;;13.20;7.88;;;;;;;18.71;62.67;98996.91;5097667;28;20040;-94
2022/05/26 06:49:41;;;;;;;13.55;7.78;;;;;;;18.73;62.30;98981.53;5095191;28;20044;-95
2022/05/26 06:52:08;;;;;;;18.30;8.10;;;;;;;19.08;61.38;98990.28;5093120;28;20424;-93
2022/05/26 06:54:36;;;;;;;16.98;7.85;;;;;;;19.41;61.37;99000.94;5091680;28;20049;-93
2022/05/26 06:57:05;;;;;;;20.63;7.82;;;;;;;19.62;59.72;98992.50;5091526;28;20036;-91
2022/05/26 06:59:31;;;;;;;18.10;7.20;;;;;;;19.85;58.96;98981.22;5091700;28;20098;-93
2022/05/26 07:01:56;;;;;;;17.73;8.00;;;;;;;20.02;58.33;98969.38;5090479;28;20067;-91
2022/05/26 07:04:22;;;;;;;17.77;7.18;;;;;;;20.38;57.65;98994.13;5091838;28;20374;-90
2022/05/26 07:06:50;;;;;;;24.05;7.60;;;;;;;20.10;57.96;98990.47;5093201;28;20062;-91
2022/05/26 07:09:16;;;;;;;17.15;8.25;;;;;;;19.79;59.20;98986.13;5092875;28;20034;-95
2022/05/26 07:11:42;;;;;;;15.73;7.22;;;;;;;20.03;58.11;98992.69;5091291;28;20120;-94
2022/05/26 07:14:09;;;;;;;15.80;7.15;;;;;;;20.21;59.40;99014.09;5091088;28;20074;-90
2022/05/26 07:16:35;;;;;;;18.65;7.97;;;;;;;20.23;59.72;98995.97;5092104;28;20036;-91
2022/05/26 07:19:01;;;;;;;21.05;7.32;;;;;;;20.49;57.87;99003.31;5091497;28;20102;-93
2022/05/26 07:21:27;;;;;;;14.40;7.60;;;;;;;20.17;58.26;99002.63;5092530;28;20497;-92
2022/05/26 07:23:53;;;;;;;20.45;8.23;;;;;;;20.33;58.35;99015.16;5092451;28;20068;-92
2022/05/26 07:26:19;;;;;;;20.88;7.88;;;;;;;20.72;57.98;99012.63;5091838;28;20382;-91
2022/05/26 07:28:45;;;;;;;15.27;7.20;;;;;;;20.85;57.14;99014.56;5090996;28;20115;-93
2022/05/26 07:31:13;;;;;;;16.27;7.72;;;;;;;20.26;58.96;99012.84;5090286;28;20086;-89
2022/05/26 07:33:39;;;;;;;16.17;7.25;;;;;;;20.61;58.66;99017.00;5090369;28;20036;-89
2022/05/26 07:36:08;;;;;;;20.33;8.15;;;;;;;20.76;58.42;99025.97;5091743;28;20043;-91
2022/05/26 07:41:33;;;;;;;18.77;7.70;;;;;;;21.86;54.44;99010.47;5103892;27;20372;-93
2022/05/26 07:44:01;;;;;;;19.00;7.50;;;;;;;22.05;52.91;99001.03;5071575;28;20040;-92
2022/05/26 07:46:27;;;;;;;17.90;7.60;;;;;;;22.42;53.08;99004.72;5071073;28;20045;-93
2022/05/26 07:48:52;;;;;;;16.67;7.50;;;;;;;22.73;51.60;99006.06;5071910;28;20075;-94
2022/05/26 07:51:21;;;;;;;16.75;7.68;;;;;;;22.88;51.69;98993.22;5072219;28;20054;-91
2022/05/26 07:53:47;;;;;;;14.18;7.07;;;;;;;23.23;50.28;99002.47;5071613;28;20032;-93
2022/05/26 07:56:13;;;;;;;19.02;7.55;;;;;;;23.28;50.03;98989.41;5071917;28;20033;-93
2022/05/26 07:58:42;;;;;;;16.63;7.20;;;;;;;22.85;50.87;98971.75;5071800;28;20431;-93
2022/05/26 08:01:08;;;;;;;15.55;7.25;;;;;;;23.14;50.22;98977.75;5071031;28;20123;-94
2022/05/26 08:03:36;;;;;;;18.45;7.60;;;;;;;23.55;49.90;98992.72;5071817;28;20060;-92
2022/05/26 08:06:03;;;;;;;21.00;7.13;;;;;;;23.73;48.07;98995.00;5072041;28;20056;-94
2022/05/26 08:08:31;;;;;;;17.98;6.80;;;;;;;23.60;49.34;98973.34;5068563;28;20402;-94
2022/05/26 08:10:57;;;;;;;16.90;7.00;;;;;;;23.94;46.44;98976.16;5072087;28;20090;-93
2022/05/26 08:13:22;;;;;;;15.10;7.22;;;;;;;24.01;46.59;98979.25;5071600;28;20053;-94
2022/05/26 08:15:51;;;;;;;17.50;7.57;;;;;;;23.85;47.76;98995.91;5071349;28;20131;-92
2022/05/26 08:18:17;;;;;;;16.00;7.00;;;;;;;23.61;46.49;98982.38;5073913;28;20744;-91
2022/05/26 08:20:43;;;;;;;19.42;6.93;;;;;;;23.76;45.91;98983.91;5071491;28;20029;-93
2022/05/26 08:23:09;;;;;;;20.20;7.60;;;;;;;23.30;48.58;99001.88;5072752;28;20040;-93
2022/05/26 08:25:35;;;;;;;21.15;7.35;;;;;;;23.12;49.48;98998.69;5073296;28;20051;-95
2022/05/26 08:28:01;;;;;;;18.15;7.60;;;;;;;23.00;48.77;99015.88;5071720;28;20489;-94
2022/05/26 08:30:27;;;;;;;20.30;7.07;;;;;;;23.04;48.76;99020.09;5073779;28;20057;-94
2022/05/26 08:32:55;;;;;;;20.17;7.15;;;;;;;22.86;49.41;98986.19;5077155;28;20043;-95
2022/05/26 08:35:22;;;;;;;17.48;7.43;;;;;;;23.48;47.50;99005.00;5077052;28;20107;-95
2022/05/26 08:37:48;;;;;;;16.13;7.28;;;;;;;23.93;46.63;99010.63;5081049;28;20098;-95
2022/05/26 08:40:35;;;;;;;19.42;6.82;;;;;;;24.15;45.43;99003.50;5071570;28;20506;-94
2022/05/26 08:43:03;;;;;;;18.58;6.90;;;;;;;24.43;44.92;98993.13;5071864;28;20119;-95
2022/05/26 08:45:31;;;;;;;18.38;6.97;;;;;;;24.78;45.20;98998.44;5071525;28;20106;-94
2022/05/26 08:47:59;;;;;;;18.33;6.65;;;;;;;25.05;42.84;98994.41;5070927;28;20045;-94
2022/05/26 08:50:28;;;;;;;23.90;6.80;;;;;;;25.30;41.13;99015.03;5070993;28;20433;-94
2022/05/26 08:52:56;;;;;;;;;;;;;;;25.34;39.93;99013.78;5057789;28;20052;-94
2022/05/26 08:55:28;;;;;;;17.10;6.22;;;;;;;25.07;41.13;99012.38;5059076;28;19931;-93
2022/05/26 08:58:04;;;;;;;22.27;7.22;;;;;;;25.08;40.75;99011.38;5059218;28;20049;-93
2022/05/26 09:00:31;;;;;;;27.73;7.00;;;;;;;25.61;40.64;99006.00;5057252;28;20136;-93
2022/05/26 09:03:00;;;;;;;15.23;5.95;;;;;;;25.83;37.77;99004.16;5057718;28;20592;-92
2022/05/26 09:05:30;;;;;;;14.35;5.57;;;;;;;26.10;36.30;98994.59;5057573;28;20049;-93
2022/05/26 09:14:08;;;;;;;12.55;6.10;;;;;;;26.94;36.15;98989.81;5093088;27;20707;-92
2022/05/26 09:16:43;;;;;;;22.40;6.57;;;;;;;26.87;35.35;98988.66;5092728;28;20037;-92
2022/05/26 09:19:11;;;;;;;15.15;6.00;;;;;;;27.18;34.16;98991.28;5092891;28;20047;-92
2022/05/26 09:21:38;;;;;;;12.63;5.47;;;;;;;26.93;33.11;98996.25;5091821;28;20492;-92
2022/05/26 09:24:19;;;;;;;12.05;6.10;;;;;;;26.93;32.66;99009.03;5092479;28;20058;-92
2022/05/26 09:26:46;;;;;;;15.88;5.57;;;;;;;26.68;32.98;99003.09;5092274;28;20032;-92
2022/05/26 09:29:13;;;;;;;13.00;5.43;;;;;;;27.18;32.85;99005.78;5091847;28;20047;-91
2022/05/26 09:31:45;;;;;;;12.43;5.75;;;;;;;27.47;32.56;99013.19;5092228;28;20106;-92
2022/05/26 09:34:18;;;;;;;12.07;5.88;;;;;;;28.06;33.15;99011.28;5091832;28;20070;-91
2022/05/26 09:36:48;;;;;;;16.42;5.57;;;;;;;27.87;30.60;99009.47;5092896;28;20393;-92
2022/05/26 09:39:17;;;;;;;15.40;5.70;;;;;;;27.07;32.57;99000.47;5092282;28;20036;-92
2022/05/26 09:41:46;;;;;;;11.85;5.80;;;;;;;27.54;33.05;99018.94;5091493;28;20496;-91
2022/05/26 09:44:44;;;;;;;15.50;6.45;;;;;;;27.59;31.72;99017.50;5090622;28;20043;-92
2022/05/26 09:47:23;;;;;;;12.27;5.68;;;;;;;27.98;31.88;99009.31;5091808;28;20543;-92
2022/05/26 09:49:52;;;;;;;13.43;5.68;;;;;;;28.06;31.98;99025.84;5090586;28;20040;-91
2022/05/26 09:52:23;;;;;;;11.98;5.43;;;;;;;28.27;31.73;99008.34;5091073;28;20039;-92
2022/05/26 09:55:05;;;;;;;13.95;5.35;;;;;;;28.87;32.68;99011.59;5086288;28;20121;-92
2022/05/26 09:57:31;;;;;;;13.27;6.20;;;;;;;29.35;31.15;99011.47;5087761;28;20056;-92
2022/05/26 09:59:59;;;;;;;21.80;6.47;;;;;;;29.43;30.62;99008.78;5091305;28;20060;-91
2022/05/26 10:02:29;;;;;;;15.73;6.40;;;;;;;29.43;31.66;99014.28;5091357;28;20040;-93
2022/05/26 10:05:03;;;;;;;14.82;6.03;;;;;;;29.56;32.24;99020.25;5091041;28;20047;-91
2022/05/26 10:07:52;;;;;;;26.42;7.00;;;;;;;28.84;32.04;99013.75;5091778;28;20036;-91
2022/05/26 10:10:24;;;;;;;12.90;6.43;;;;;;;28.54;31.80;99001.22;5091450;28;20074;-93
2022/05/26 10:12:58;;;;;;;13.40;6.53;;;;;;;28.81;31.17;98998.50;5091002;28;20048;-92
2022/05/26 10:15:39;;;;;;;16.58;6.38;;;;;;;28.87;31.34;99005.28;5085305;28;20393;-93
2022/05/26 10:18:30;;;;;;;13.90;6.50;;;;;;;29.17;31.87;99001.38;5091023;28;20099;-92
2022/05/26 10:21:04;;;;;;;11.35;5.95;;;;;;;29.73;30.90;98993.00;5089778;28;20493;-92
2022/05/26 10:23:46;;;;;;;13.82;6.00;;;;;;;30.21;30.76;99002.63;5088005;28;20040;-91
2022/05/26 10:26:22;;;;;;;15.05;6.32;;;;;;;30.37;29.96;98990.94;5078697;28;20033;-92
2022/05/26 10:29:09;;;;;;;14.35;5.53;;;;;;;30.18;28.65;98997.47;5078917;28;20036;-92
2022/05/26 10:31:51;;;;;;;13.30;5.95;;;;;;;30.59;28.31;99001.34;5076638;28;20047;-91
2022/05/26 10:34:46;;;;;;;11.48;5.63;;;;;;;30.81;27.93;98997.13;5073309;28;20044;-93
2022/05/26 10:37:24;;;;;;;15.80;6.05;;;;;;;30.13;26.75;99000.69;5068751;28;20037;-92
2022/05/26 10:40:12;;;;;;;18.47;5.80;;;;;;;30.41;27.22;99006.06;5077150;28;20047;-92
2022/05/26 10:42:43;;;;;;;17.95;5.53;;;;;;;30.48;27.46;98993.41;5075010;28;20040;-92
2022/05/26 10:45:16;;;;;;;14.30;5.40;;;;;;;30.60;26.54;98989.34;5077005;28;20033;-92
2022/05/26 10:47:52;;;;;;;13.27;5.63;;;;;;;30.27;26.51;98982.78;5077632;28;20100;-94
2022/05/26 10:50:25;;;;;;;15.10;5.85;;;;;;;29.95;26.62;98977.94;5074239;28;20040;-92
2022/05/26 10:52:58;;;;;;;13.63;5.32;;;;;;;29.93;25.99;98988.19;5077006;28;20041;-92
2022/05/26 10:55:34;;;;;;;11.88;4.85;;;;;;;29.97;26.34;98989.59;5076969;28;20058;-91
2022/05/26 10:58:04;;;;;;;10.75;5.25;;;;;;;30.24;26.83;98981.22;5077105;28;20040;-93
2022/05/26 11:00:31;;;;;;;12.35;5.03;;;;;;;29.83;22.58;98985.56;5076682;28;20041;-93
2022/05/26 11:03:09;;;;;;;10.35;4.00;;;;;;;29.65;22.57;98988.31;5077240;28;20054;-91
2022/05/26 11:05:39;;;;;;;13.93;4.85;;;;;;;29.46;24.36;98987.44;5077449;28;20620;-92
2022/05/26 11:08:18;;;;;;;11.23;4.50;;;;;;;29.49;24.67;98987.16;5076820;28;20041;-93
2022/05/26 11:10:48;;;;;;;12.88;4.78;;;;;;;29.48;25.43;98977.19;5076787;28;20033;-92
2022/05/26 11:13:20;;;;;;;11.02;4.95;;;;;;;29.59;24.76;98983.44;5076487;28;20057;-93
2022/05/26 11:18:59;;;;;;;9.90;4.57;;;;;;;29.28;24.85;98981.13;5076339;27;20373;-93
2022/05/26 11:21:24;;;;;;;10.45;4.65;;;;;;;29.18;25.14;98972.09;5042936;28;20088;-92
2022/05/26 11:23:51;;;;;;;14.93;4.72;;;;;;;28.99;25.30;98979.38;5041826;28;20052;-93
2022/05/26 11:26:25;;;;;;;9.52;4.78;;;;;;;28.84;25.23;98976.34;5044922;28;20034;-92
2022/05/26 11:28:55;;;;;;;13.30;4.40;;;;;;;28.97;25.35;98964.97;5039952;28;20128;-91
2022/05/26 11:37:40;;;;;;;14.57;4.30;;;;;;;30.82;24.94;98954.94;5133269;27;20375;-93
2022/05/26 11:40:08;;;;;;;10.63;4.88;;;;;;;30.95;22.46;98953.63;5133977;27;20043;-92
2022/05/26 11:42:37;;;;;;;12.00;4.55;;;;;;;30.70;22.92;98942.53;5133985;27;20043;-92
2022/05/26 11:45:16;;;;;;;;;;;;;;;31.29;22.88;98951.66;5133141;28;20456;-93
2022/05/26 11:47:55;;;;;;;11.00;3.90;;;;;;;31.63;21.34;98945.16;5133121;27;19959;-91
2022/05/26 11:50:50;;;;;;;11.38;4.28;;;;;;;31.64;21.05;98943.25;5133021;27;20434;-92
2022/05/26 11:53:39;;;;;;;9.88;4.15;;;;;;;31.85;20.96;98937.25;5132898;27;20051;-95
2022/05/26 11:56:39;;;;;;;12.35;4.43;;;;;;;31.83;21.25;98950.31;5126377;28;20126;-91
2022/05/26 11:59:33;;;;;;;14.38;4.22;;;;;;;31.41;22.40;98935.69;5130282;28;20518;-94
2022/05/26 12:02:37;;;;;;;9.90;3.95;;;;;;;31.23;23.44;98937.72;5099083;27;20051;-93
2022/05/26 12:05:44;;;;;;;9.60;3.90;;;;;;;31.17;22.61;98933.78;5130884;28;20039;-93
2022/05/26 12:08:37;;;;;;;11.20;4.32;;;;;;;30.91;22.35;98926.50;5046249;28;20060;-92
2022/05/26 12:11:12;;;;;;;12.07;4.10;;;;;;;30.86;21.78;98912.44;5047206;28;20041;-92
2022/05/26 12:13:40;;;;;;;9.48;3.88;;;;;;;30.60;22.23;98928.97;5050421;28;20049;-94
2022/05/26 12:16:10;;;;;;;8.98;4.10;;;;;;;30.84;22.66;98919.06;5049491;28;20037;-93
2022/05/26 12:18:38;;;;;;;7.72;3.90;;;;;;;30.60;21.39;98922.59;5049724;28;20049;-93
2022/05/26 12:21:13;;;;;;;11.73;4.35;;;;;;;30.65;21.93;98904.59;5049738;28;20037;-92
2022/05/26 12:23:42;;;;;;;10.10;3.97;;;;;;;30.91;22.74;98912.78;5050332;28;20045;-92
2022/05/26 12:26:26;;;;;;;10.40;4.28;;;;;;;31.26;22.73;98918.16;5048062;28;20129;-93